createdAt,value
2019-03-18T00:00:18.027Z,7.50
2019-03-18T00:02:46.316Z,7.50
2019-03-18T00:05:14.812Z,7.50
2019-03-18T00:07:43.242Z,7.40
2019-03-18T00:10:11.904Z,7.30
2019-03-18T00:12:40.468Z,7.30
2019-03-18T00:15:09.501Z,7.20
2019-03-18T00:17:37.953Z,7.20
2019-03-18T00:20:08.114Z,7.20
2019-03-18T00:22:36.784Z,7.20
2019-03-18T00:25:11.001Z,7.10
2019-03-18T00:27:39.561Z,7.00
2019-03-18T00:30:15.831Z,7.00
2019-03-18T00:32:44.088Z,7.10
2019-03-18T00:35:12.499Z,7.00
2019-03-18T00:37:40.870Z,7.00
2019-03-18T00:40:16.422Z,7.10
2019-03-18T00:42:44.886Z,7.00
2019-03-18T00:45:15.224Z,7.00
2019-03-18T00:47:42.705Z,7.00
2019-03-18T00:50:14.925Z,7.00
2019-03-18T00:52:43.527Z,6.90
2019-03-18T00:55:11.853Z,6.90
2019-03-18T00:57:40.260Z,6.90
2019-03-18T01:00:15.922Z,6.90
2019-03-18T01:02:49.324Z,6.90
2019-03-18T01:05:16.957Z,6.80
2019-03-18T01:07:45.446Z,6.80
2019-03-18T01:10:16.968Z,6.70
2019-03-18T01:12:45.459Z,6.70
2019-03-18T01:15:26.907Z,6.60
2019-03-18T01:17:43.975Z,6.60
2019-03-18T01:20:15.438Z,6.50
2019-03-18T01:22:43.919Z,6.50
2019-03-18T01:25:12.348Z,6.40
2019-03-18T01:27:40.745Z,6.40
2019-03-18T01:30:11.258Z,6.40
2019-03-18T01:32:39.639Z,6.30
2019-03-18T01:35:09.720Z,6.40
2019-03-18T01:37:37.456Z,6.30
2019-03-18T01:40:08.546Z,6.20
2019-03-18T01:42:37.065Z,6.20
2019-03-18T01:45:06.701Z,6.10
2019-03-18T01:47:34.968Z,5.90
2019-03-18T01:50:03.927Z,5.80
2019-03-18T01:52:32.354Z,5.80
2019-03-18T01:55:00.767Z,5.70
2019-03-18T01:57:29.036Z,5.60
2019-03-18T01:59:57.389Z,5.60
2019-03-18T02:02:25.733Z,5.60
2019-03-18T02:04:54.051Z,5.60
2019-03-18T02:07:22.456Z,5.50
2019-03-18T02:09:50.788Z,5.50
2019-03-18T02:12:19.148Z,5.40
2019-03-18T02:14:47.517Z,5.40
2019-03-18T02:17:15.863Z,5.40
2019-03-18T02:19:47.292Z,5.40
2019-03-18T02:22:16.477Z,5.40
2019-03-18T02:24:45.038Z,5.40
2019-03-18T02:27:15.081Z,5.30
2019-03-18T02:29:42.694Z,5.30
2019-03-18T02:32:10.981Z,5.30
2019-03-18T02:34:39.798Z,5.30
2019-03-18T02:37:08.220Z,5.40
2019-03-18T02:39:36.515Z,5.50
2019-03-18T02:42:04.958Z,5.50
2019-03-18T02:44:33.298Z,5.50
2019-03-18T02:47:01.673Z,5.50
2019-03-18T02:49:30.008Z,5.40
2019-03-18T02:51:58.372Z,5.40
2019-03-18T02:54:26.862Z,5.40
2019-03-18T02:56:55.457Z,5.30
2019-03-18T02:59:24.118Z,5.40
2019-03-18T03:01:52.460Z,5.30
2019-03-18T03:04:20.871Z,5.30
2019-03-18T03:06:49.285Z,5.30
2019-03-18T03:09:17.731Z,5.30
2019-03-18T03:11:46.147Z,5.30
2019-03-18T03:14:14.625Z,5.30
2019-03-18T03:16:43.057Z,5.30
2019-03-18T03:19:11.471Z,5.20
2019-03-18T03:21:39.963Z,5.20
2019-03-18T03:24:08.401Z,5.20
2019-03-18T03:26:36.986Z,5.10
2019-03-18T03:29:05.449Z,5.20
2019-03-18T03:31:33.828Z,5.30
2019-03-18T03:34:02.150Z,5.30
2019-03-18T03:36:30.597Z,5.30
2019-03-18T03:38:58.933Z,5.30
2019-03-18T03:41:27.712Z,5.30
2019-03-18T03:43:56.023Z,5.30
2019-03-18T03:46:24.495Z,5.30
2019-03-18T03:48:52.911Z,5.40
2019-03-18T03:51:21.428Z,5.40
2019-03-18T03:53:50.705Z,5.40
2019-03-18T03:56:19.210Z,5.30
2019-03-18T03:58:47.579Z,5.30
2019-03-18T04:01:15.862Z,5.20
2019-03-18T04:03:44.235Z,5.20
2019-03-18T04:06:12.627Z,5.10
2019-03-18T04:08:41.076Z,5.10
2019-03-18T04:11:09.690Z,5.10
2019-03-18T04:13:38.015Z,5.10
2019-03-18T04:16:06.328Z,5.00
2019-03-18T04:18:34.757Z,5.00
2019-03-18T04:21:03.147Z,5.00
2019-03-18T04:23:31.462Z,5.00
2019-03-18T04:26:00.198Z,5.00
2019-03-18T04:28:28.621Z,5.00
2019-03-18T04:30:57.001Z,5.10
2019-03-18T04:33:25.417Z,5.10
2019-03-18T04:35:53.925Z,5.00
2019-03-18T04:38:22.369Z,5.00
2019-03-18T04:40:51.022Z,4.90
2019-03-18T04:43:19.389Z,4.90
2019-03-18T04:45:47.687Z,4.90
2019-03-18T04:48:16.054Z,4.90
2019-03-18T04:50:44.463Z,4.80
2019-03-18T04:53:13.065Z,4.80
2019-03-18T04:55:41.434Z,4.80
2019-03-18T04:58:09.993Z,4.70
2019-03-18T05:00:38.428Z,4.70
2019-03-18T05:03:06.886Z,4.60
2019-03-18T05:05:35.199Z,4.60
2019-03-18T05:08:03.498Z,4.70
2019-03-18T05:10:31.872Z,4.70
2019-03-18T05:13:00.211Z,4.70
2019-03-18T05:15:29.443Z,4.70
2019-03-18T05:17:57.779Z,4.70
2019-03-18T05:20:33.767Z,4.70
2019-03-18T05:23:02.152Z,4.80
2019-03-18T05:25:33.399Z,4.90
2019-03-18T05:28:01.802Z,4.90
2019-03-18T05:30:30.440Z,4.90
2019-03-18T05:32:58.951Z,4.90
2019-03-18T05:35:27.231Z,4.80
2019-03-18T05:37:55.743Z,4.80
2019-03-18T05:40:24.151Z,4.80
2019-03-18T05:42:52.458Z,4.80
2019-03-18T05:45:20.817Z,4.90
2019-03-18T05:47:49.136Z,4.90
2019-03-18T05:50:17.536Z,5.00
2019-03-18T05:52:46.006Z,5.00
2019-03-18T05:55:14.374Z,5.00
2019-03-18T05:57:45.531Z,5.10
2019-03-18T06:00:15.367Z,5.10
2019-03-18T06:02:46.651Z,5.10
2019-03-18T06:05:13.125Z,5.10
2019-03-18T06:07:41.391Z,5.10
2019-03-18T06:10:13.776Z,5.10
2019-03-18T06:12:42.299Z,5.20
2019-03-18T06:15:11.673Z,5.10
2019-03-18T06:17:51.633Z,5.20
2019-03-18T06:20:11.132Z,5.20
2019-03-18T06:22:39.646Z,5.30
2019-03-18T06:25:08.949Z,5.30
2019-03-18T06:27:37.281Z,5.30
2019-03-18T06:30:16.702Z,5.30
2019-03-18T06:32:47.881Z,5.30
2019-03-18T06:35:16.657Z,5.50
2019-03-18T06:37:44.905Z,5.60
2019-03-18T06:40:16.103Z,5.60
2019-03-18T06:42:44.534Z,5.70
2019-03-18T06:45:12.947Z,5.90
2019-03-18T06:47:41.396Z,6.10
2019-03-18T06:50:11.053Z,6.30
2019-03-18T06:52:39.461Z,6.40
2019-03-18T06:55:08.054Z,6.40
2019-03-18T06:57:36.457Z,6.20
2019-03-18T07:00:12.953Z,6.20
2019-03-18T07:02:41.679Z,6.20
2019-03-18T07:05:12.242Z,6.20
2019-03-18T07:07:42.143Z,6.20
2019-03-18T07:10:14.416Z,6.30
2019-03-18T07:12:43.210Z,6.30
2019-03-18T07:15:11.719Z,6.30
2019-03-18T07:17:41.112Z,6.20
2019-03-18T07:20:14.057Z,6.20
2019-03-18T07:22:42.646Z,6.30
2019-03-18T07:25:11.204Z,6.30
2019-03-18T07:27:41.555Z,6.30
2019-03-18T07:30:11.920Z,6.30
2019-03-18T07:32:40.600Z,6.30
2019-03-18T07:35:09.315Z,6.40
2019-03-18T07:37:37.600Z,6.50
2019-03-18T07:40:12.095Z,6.50
2019-03-18T07:42:40.690Z,6.60
2019-03-18T07:45:15.637Z,6.70
2019-03-18T07:47:43.224Z,6.90
2019-03-18T07:50:12.866Z,6.90
2019-03-18T07:52:41.218Z,6.90
2019-03-18T07:55:09.815Z,6.80
2019-03-18T07:57:38.199Z,6.80
2019-03-18T08:00:17.533Z,6.70
2019-03-18T08:02:45.939Z,6.80
2019-03-18T08:05:14.266Z,6.90
2019-03-18T08:07:43.201Z,7.00
2019-03-18T08:10:12.821Z,7.00
2019-03-18T08:12:41.234Z,7.10
2019-03-18T08:15:10.867Z,7.20
2019-03-18T08:17:39.577Z,7.30
2019-03-18T08:20:11.066Z,7.20
2019-03-18T08:22:39.926Z,7.40
2019-03-18T08:25:09.276Z,7.30
2019-03-18T08:27:37.792Z,7.30
2019-03-18T08:30:14.327Z,7.30
2019-03-18T08:32:43.621Z,7.40
2019-03-18T08:35:12.340Z,7.40
2019-03-18T08:37:40.772Z,7.50
2019-03-18T08:40:10.461Z,7.60
2019-03-18T08:42:38.897Z,7.70
2019-03-18T08:45:10.272Z,7.80
2019-03-18T08:47:40.871Z,7.80
2019-03-18T08:50:12.224Z,7.80
2019-03-18T08:52:40.531Z,7.80
2019-03-18T08:55:10.198Z,7.90
2019-03-18T08:57:38.686Z,7.90
2019-03-18T09:03:00.180Z,7.70
2019-03-18T09:05:29.010Z,7.60
2019-03-18T09:07:57.370Z,7.60
2019-03-18T09:10:25.831Z,7.50
2019-03-18T09:12:54.389Z,7.40
2019-03-18T09:15:22.653Z,7.50
2019-03-18T09:17:51.022Z,7.60
2019-03-18T09:20:22.043Z,7.90
2019-03-18T09:22:50.291Z,8.00
2019-03-18T09:25:18.735Z,8.10
2019-03-18T09:27:47.041Z,8.20
2019-03-18T09:30:16.868Z,8.20
2019-03-18T09:32:46.318Z,8.40
2019-03-18T09:35:14.966Z,8.40
2019-03-18T09:37:43.394Z,8.40
2019-03-18T09:40:14.383Z,8.50
2019-03-18T09:42:44.773Z,8.50
2019-03-18T09:45:16.345Z,8.60
2019-03-18T09:47:44.644Z,8.70
2019-03-18T09:50:13.414Z,8.80
2019-03-18T09:52:41.752Z,8.60
2019-03-18T09:55:10.200Z,8.40
2019-03-18T09:57:38.693Z,8.40
2019-03-18T10:00:12.255Z,8.50
2019-03-18T10:02:40.539Z,8.70
2019-03-18T10:05:08.966Z,8.90
2019-03-18T10:07:37.266Z,8.90
2019-03-18T10:10:09.814Z,9.00
2019-03-18T10:12:38.277Z,8.90
2019-03-18T10:15:10.001Z,8.90
2019-03-18T10:17:38.509Z,8.60
2019-03-18T10:20:08.428Z,8.70
2019-03-18T10:22:38.506Z,8.90
2019-03-18T10:25:07.169Z,9.20
2019-03-18T10:27:38.055Z,9.10
2019-03-18T10:30:12.288Z,9.20
2019-03-18T10:32:41.741Z,9.20
2019-03-18T10:35:11.270Z,9.20
2019-03-18T10:37:40.864Z,9.20
2019-03-18T10:40:11.623Z,9.30
2019-03-18T10:42:42.646Z,9.30
2019-03-18T10:45:12.267Z,9.40
2019-03-18T10:47:40.805Z,9.00
2019-03-18T10:50:11.435Z,9.00
2019-03-18T10:52:39.736Z,9.10
2019-03-18T10:55:09.504Z,9.10
2019-03-18T10:57:38.121Z,8.90
2019-03-18T11:00:15.588Z,8.90
2019-03-18T11:02:45.274Z,9.10
2019-03-18T11:05:13.676Z,9.20
2019-03-18T11:07:42.004Z,9.20
2019-03-18T11:10:14.409Z,9.10
2019-03-18T11:12:42.774Z,9.20
2019-03-18T11:15:13.234Z,9.70
2019-03-18T11:17:41.937Z,10.60
2019-03-18T11:20:14.971Z,11.40
2019-03-18T11:22:43.394Z,11.40
2019-03-18T11:25:15.364Z,11.10
2019-03-18T11:27:43.948Z,10.50
2019-03-18T11:30:16.378Z,10.20
2019-03-18T11:32:45.446Z,9.90
2019-03-18T11:35:18.247Z,9.70
2019-03-18T11:37:46.709Z,9.50
2019-03-18T11:40:19.814Z,9.50
2019-03-18T11:42:48.515Z,9.60
2019-03-18T11:45:17.379Z,9.70
2019-03-18T11:47:46.099Z,9.60
2019-03-18T11:50:16.707Z,9.60
2019-03-18T11:52:45.430Z,9.50
2019-03-18T11:55:16.596Z,9.60
2019-03-18T11:57:45.788Z,9.50
2019-03-18T12:00:20.842Z,9.50
2019-03-18T12:02:51.158Z,9.70
2019-03-18T12:05:23.656Z,9.70
2019-03-18T12:07:52.337Z,9.80
2019-03-18T12:10:21.188Z,9.70
2019-03-18T12:12:51.686Z,9.50
2019-03-18T12:15:27.321Z,9.50
2019-03-18T12:17:56.104Z,9.60
2019-03-18T12:20:25.743Z,9.70
2019-03-18T12:22:53.966Z,9.60
2019-03-18T12:25:22.953Z,9.40
2019-03-18T12:27:51.340Z,9.30
2019-03-18T12:30:22.282Z,9.20
2019-03-18T12:32:50.555Z,9.20
2019-03-18T12:35:25.604Z,9.30
2019-03-18T12:37:54.146Z,9.30
2019-03-18T12:40:23.133Z,9.40
2019-03-18T12:42:51.758Z,9.40
2019-03-18T12:45:21.227Z,9.50
2019-03-18T12:47:49.541Z,9.60
2019-03-18T12:50:18.873Z,9.70
2019-03-18T12:52:47.277Z,9.30
2019-03-18T12:55:15.979Z,9.10
2019-03-18T12:57:44.573Z,9.00
2019-03-18T13:00:33.252Z,9.00
2019-03-18T13:03:02.006Z,8.90
2019-03-18T13:05:30.571Z,9.00
2019-03-18T13:08:00.219Z,8.90
2019-03-18T13:10:28.794Z,8.90
2019-03-18T13:12:57.996Z,8.80
2019-03-18T13:15:28.156Z,9.10
2019-03-18T13:17:56.707Z,9.00
2019-03-18T13:20:25.291Z,8.90
2019-03-18T13:22:54.338Z,8.70
2019-03-18T13:25:22.846Z,8.80
2019-03-18T13:27:51.564Z,8.80
2019-03-18T13:30:21.008Z,8.70
2019-03-18T13:32:49.700Z,8.70
2019-03-18T13:35:19.953Z,8.90
2019-03-18T13:37:49.499Z,8.80
2019-03-18T13:40:18.703Z,8.70
2019-03-18T13:42:47.076Z,8.60
2019-03-18T13:45:17.493Z,8.60
2019-03-18T13:47:45.904Z,8.50
2019-03-18T13:50:18.331Z,8.60
2019-03-18T13:52:46.676Z,8.50
2019-03-18T13:55:15.112Z,8.60
2019-03-18T13:57:43.450Z,8.60
2019-03-18T14:00:15.227Z,8.60
2019-03-18T14:02:44.069Z,8.70
2019-03-18T14:05:12.504Z,8.70
2019-03-18T14:07:42.685Z,8.70
2019-03-18T14:10:19.622Z,8.70
2019-03-18T14:12:48.405Z,8.50
2019-03-18T14:15:17.820Z,8.60
2019-03-18T14:17:48.030Z,8.50
2019-03-18T14:20:18.957Z,8.50
2019-03-18T14:22:47.393Z,8.50
2019-03-18T14:25:16.054Z,8.40
2019-03-18T14:27:44.448Z,8.30
2019-03-18T14:30:21.432Z,8.30
2019-03-18T14:32:50.185Z,8.30
2019-03-18T14:35:21.535Z,8.40
2019-03-18T14:37:48.006Z,8.40
2019-03-18T14:40:18.330Z,8.50
2019-03-18T14:42:46.885Z,8.40
2019-03-18T14:45:21.428Z,8.40
2019-03-18T14:47:51.618Z,8.40
2019-03-18T14:50:20.301Z,8.30
2019-03-18T14:52:48.993Z,8.10
2019-03-18T14:55:19.760Z,8.00
2019-03-18T14:57:48.209Z,8.10
2019-03-18T15:00:24.519Z,8.10
2019-03-18T15:02:52.884Z,8.00
2019-03-18T15:05:21.399Z,8.00
2019-03-18T15:07:49.778Z,8.10
2019-03-18T15:10:21.406Z,8.10
2019-03-18T15:12:49.861Z,8.10
2019-03-18T15:15:18.969Z,8.00
2019-03-18T15:17:47.491Z,7.90
2019-03-18T15:20:21.266Z,7.90
2019-03-18T15:22:49.601Z,7.80
2019-03-18T15:25:23.594Z,7.80
2019-03-18T15:27:51.889Z,7.80
2019-03-18T15:30:20.738Z,7.80
2019-03-18T15:32:49.110Z,7.80
2019-03-18T15:35:18.063Z,7.80
2019-03-18T15:37:46.382Z,7.70
2019-03-18T15:40:23.560Z,7.70
2019-03-18T15:42:53.907Z,7.70
2019-03-18T15:45:22.856Z,7.60
2019-03-18T15:47:51.413Z,7.50
2019-03-18T15:50:24.283Z,7.40
2019-03-18T15:52:52.889Z,7.40
2019-03-18T15:55:23.738Z,7.30
2019-03-18T15:57:50.659Z,7.30
2019-03-18T16:00:21.194Z,7.20
2019-03-18T16:02:49.477Z,7.20
2019-03-18T16:05:17.919Z,7.10
2019-03-18T16:07:48.875Z,7.10
2019-03-18T16:10:18.428Z,7.10
2019-03-18T16:12:46.735Z,7.00
2019-03-18T16:15:16.142Z,7.00
2019-03-18T16:17:44.534Z,7.00
2019-03-18T16:20:14.613Z,6.90
2019-03-18T16:22:42.985Z,6.90
2019-03-18T16:25:11.898Z,6.90
2019-03-18T16:27:40.323Z,6.80
2019-03-18T16:30:18.984Z,6.70
2019-03-18T16:32:47.334Z,6.70
2019-03-18T16:35:16.575Z,6.70
2019-03-18T16:37:45.075Z,6.60
2019-03-18T16:40:16.803Z,6.50
2019-03-18T16:42:47.066Z,6.50
2019-03-18T16:45:16.567Z,6.40
2019-03-18T16:47:44.840Z,6.40
2019-03-18T16:50:23.957Z,6.30
2019-03-18T16:52:52.242Z,6.20
2019-03-18T16:55:20.681Z,6.20
2019-03-18T16:57:49.041Z,6.10
2019-03-18T17:00:29.171Z,6.10
2019-03-18T17:02:57.540Z,6.10
2019-03-18T17:05:25.820Z,6.00
2019-03-18T17:07:54.668Z,6.00
2019-03-18T17:10:23.100Z,6.00
2019-03-18T17:12:51.544Z,5.90
2019-03-18T17:15:22.897Z,5.90
2019-03-18T17:17:51.277Z,5.90
2019-03-18T17:20:19.694Z,5.90
2019-03-18T17:22:49.934Z,5.90
2019-03-18T17:25:23.267Z,5.80
2019-03-18T17:27:51.611Z,5.80
2019-03-18T17:30:20.629Z,5.80
2019-03-18T17:32:48.946Z,5.80
2019-03-18T17:35:17.217Z,5.70
2019-03-18T17:37:45.502Z,5.70
2019-03-18T17:40:15.120Z,5.60
2019-03-18T17:42:43.399Z,5.60
2019-03-18T17:45:15.541Z,5.70
2019-03-18T17:47:43.831Z,5.60
2019-03-18T17:50:16.720Z,5.50
2019-03-18T17:52:45.150Z,5.40
2019-03-18T17:55:13.451Z,5.30
2019-03-18T17:57:41.785Z,5.30
2019-03-18T18:00:13.903Z,5.20
2019-03-18T18:02:42.575Z,5.10
2019-03-18T18:05:20.956Z,5.10
2019-03-18T18:07:48.286Z,5.10
2019-03-18T18:10:16.602Z,5.10
2019-03-18T18:12:44.981Z,5.00
2019-03-18T18:15:13.261Z,4.90
2019-03-18T18:17:41.631Z,5.00
2019-03-18T18:20:18.472Z,5.10
2019-03-18T18:22:47.542Z,5.00
2019-03-18T18:25:28.909Z,5.10
2019-03-18T18:28:09.491Z,5.00
2019-03-18T18:30:46.307Z,5.00
2019-03-18T18:33:28.420Z,5.00
2019-03-18T18:36:04.357Z,5.10
2019-03-18T18:38:33.717Z,5.10
2019-03-18T18:41:12.104Z,5.10
2019-03-18T18:43:56.004Z,5.10
2019-03-18T18:46:24.342Z,5.20
2019-03-18T18:48:52.843Z,5.10
2019-03-18T18:51:21.245Z,5.10
2019-03-18T18:53:49.597Z,5.10
2019-03-18T18:56:19.915Z,5.10
2019-03-18T18:58:48.425Z,5.10
2019-03-18T19:01:24.308Z,5.00
2019-03-18T19:03:54.147Z,5.00
2019-03-18T19:06:33.655Z,5.00
2019-03-18T19:09:08.170Z,5.00
2019-03-18T19:11:40.624Z,5.00
2019-03-18T19:14:13.010Z,4.90
2019-03-18T19:16:41.610Z,4.90
2019-03-18T19:19:09.927Z,4.90
2019-03-18T19:21:38.263Z,4.90
2019-03-18T19:24:06.679Z,4.80
2019-03-18T19:26:35.173Z,4.70
2019-03-18T19:29:03.535Z,4.70
2019-03-18T19:31:32.042Z,4.70
2019-03-18T19:34:00.348Z,4.60
2019-03-18T19:36:28.895Z,4.40
2019-03-18T19:38:57.290Z,4.30
2019-03-18T19:41:25.703Z,4.20
2019-03-18T19:43:55.789Z,4.20
2019-03-18T19:46:27.875Z,4.20
2019-03-18T19:48:56.298Z,4.10
2019-03-18T19:51:24.677Z,4.00
2019-03-18T19:53:53.084Z,4.00
2019-03-18T19:56:21.458Z,4.00
2019-03-18T19:58:49.859Z,4.00
2019-03-18T20:01:22.142Z,3.90
2019-03-18T20:03:50.644Z,3.90
2019-03-18T20:06:19.321Z,3.90
2019-03-18T20:08:47.656Z,3.80
2019-03-18T20:11:18.073Z,3.70
2019-03-18T20:13:46.423Z,3.60
2019-03-18T20:16:14.712Z,3.60
2019-03-18T20:18:43.073Z,3.60
2019-03-18T20:21:11.357Z,3.50
2019-03-18T20:23:39.713Z,3.40
2019-03-18T20:26:08.130Z,3.40
2019-03-18T20:28:36.621Z,3.40
2019-03-18T20:31:05.027Z,3.40
2019-03-18T20:33:33.552Z,3.40
2019-03-18T20:36:01.978Z,3.30
2019-03-18T20:38:30.399Z,3.30
2019-03-18T20:40:59.078Z,3.20
2019-03-18T20:43:29.971Z,3.00
2019-03-18T20:45:57.502Z,3.00
2019-03-18T20:48:26.850Z,2.90
2019-03-18T20:50:56.862Z,2.90
2019-03-18T20:53:28.427Z,2.80
2019-03-18T20:55:57.698Z,2.80
2019-03-18T20:58:26.052Z,3.00
2019-03-18T21:00:54.475Z,3.10
2019-03-18T21:03:22.894Z,3.20
2019-03-18T21:05:51.188Z,3.30
2019-03-18T21:08:19.568Z,3.40
2019-03-18T21:10:47.993Z,3.50
2019-03-18T21:13:17.164Z,3.50
2019-03-18T21:15:45.836Z,3.40
2019-03-18T21:18:14.265Z,3.30
2019-03-18T21:20:42.691Z,3.30
2019-03-18T21:23:11.079Z,3.40
2019-03-18T21:25:39.477Z,3.40
2019-03-18T21:28:07.802Z,3.50
2019-03-18T21:30:36.422Z,3.50
2019-03-18T21:33:04.934Z,3.50
2019-03-18T21:35:33.559Z,3.60
2019-03-18T21:38:01.928Z,3.60
2019-03-18T21:40:32.695Z,3.50
2019-03-18T21:43:01.094Z,3.40
2019-03-18T21:45:29.593Z,3.30
2019-03-18T21:47:58.244Z,3.40
2019-03-18T21:50:31.406Z,3.30
2019-03-18T21:52:59.851Z,3.20
2019-03-18T21:55:28.329Z,3.20
2019-03-18T21:58:00.617Z,3.10
2019-03-18T22:00:29.568Z,3.20
2019-03-18T22:02:57.959Z,3.20
2019-03-18T22:05:26.519Z,3.20
2019-03-18T22:07:55.066Z,3.20
2019-03-18T22:10:23.598Z,3.20
2019-03-18T22:12:52.100Z,3.20
2019-03-18T22:15:20.562Z,3.10
2019-03-18T22:17:48.886Z,3.10
2019-03-18T22:20:19.213Z,3.00
2019-03-18T22:22:47.529Z,2.90
2019-03-18T22:25:18.975Z,2.80
2019-03-18T22:27:47.297Z,2.70
2019-03-18T22:30:16.931Z,2.60
2019-03-18T22:32:45.474Z,2.60
2019-03-18T22:35:14.335Z,2.60
2019-03-18T22:37:42.746Z,2.60
2019-03-18T22:40:12.647Z,2.70
2019-03-18T22:42:40.351Z,2.70
2019-03-18T22:45:14.156Z,2.60
2019-03-18T22:47:42.852Z,2.60
2019-03-18T22:50:12.113Z,2.60
2019-03-18T22:52:40.550Z,2.60
2019-03-18T22:55:10.348Z,2.60
2019-03-18T22:57:38.495Z,2.50
2019-03-18T23:00:11.786Z,2.50
2019-03-18T23:02:40.171Z,2.40
2019-03-18T23:05:08.487Z,2.30
2019-03-18T23:07:36.812Z,2.30
2019-03-18T23:10:07.184Z,2.30
2019-03-18T23:12:36.057Z,2.20
2019-03-18T23:15:05.999Z,2.10
2019-03-18T23:17:34.745Z,2.20
2019-03-18T23:20:03.690Z,2.20
2019-03-18T23:22:32.109Z,2.20
2019-03-18T23:25:07.020Z,2.30
2019-03-18T23:27:31.195Z,2.20
2019-03-18T23:29:59.466Z,2.30
2019-03-18T23:32:27.792Z,2.30
2019-03-18T23:34:56.489Z,2.40
2019-03-18T23:37:24.866Z,2.30
2019-03-18T23:39:53.289Z,2.30
2019-03-18T23:42:21.750Z,2.30
2019-03-18T23:44:53.200Z,2.10
2019-03-18T23:47:21.767Z,2.10
2019-03-18T23:49:50.125Z,2.10
2019-03-18T23:52:18.429Z,2.10
2019-03-18T23:54:46.760Z,2.00
2019-03-18T23:57:15.008Z,1.80
2019-03-18T23:59:45.434Z,1.70
